sensor_id;sensor_type;location;lat;lon;timestamp;P1;durP1;ratioP1;P2;durP2;ratioP2
55609;SDS011;41486;52.502;13.486;2022-10-16T00:01:20;2.40;;;1.92;;
55609;SDS011;41486;52.502;13.486;2022-10-16T00:03:50;2.55;;;2.35;;
55609;SDS011;41486;52.502;13.486;2022-10-16T00:06:20;2.88;;;1.88;;
55609;SDS011;41486;52.502;13.486;2022-10-16T00:08:50;2.70;;;2.13;;
55609;SDS011;41486;52.502;13.486;2022-10-16T00:11:19;3.58;;;2.30;;
55609;SDS011;41486;52.502;13.486;2022-10-16T00:13:49;1.83;;;1.70;;
55609;SDS011;41486;52.502;13.486;2022-10-16T00:16:19;2.50;;;2.00;;
55609;SDS011;41486;52.502;13.486;2022-10-16T00:18:47;2.03;;;1.80;;
55609;SDS011;41486;52.502;13.486;2022-10-16T00:21:16;3.15;;;1.80;;
55609;SDS011;41486;52.502;13.486;2022-10-16T00:24:06;2.95;;;2.13;;
55609;SDS011;41486;52.502;13.486;2022-10-16T00:26:35;2.33;;;1.80;;
55609;SDS011;41486;52.502;13.486;2022-10-16T00:29:04;2.30;;;1.73;;
55609;SDS011;41486;52.502;13.486;2022-10-16T00:31:33;3.25;;;1.60;;
55609;SDS011;41486;52.502;13.486;2022-10-16T00:34:01;2.25;;;1.80;;
55609;SDS011;41486;52.502;13.486;2022-10-16T00:36:29;1.85;;;1.52;;
55609;SDS011;41486;52.502;13.486;2022-10-16T00:38:57;2.13;;;1.75;;
55609;SDS011;41486;52.502;13.486;2022-10-16T00:41:28;3.35;;;1.65;;
55609;SDS011;41486;52.502;13.486;2022-10-16T00:43:56;2.78;;;1.70;;
55609;SDS011;41486;52.502;13.486;2022-10-16T00:46:26;1.67;;;1.40;;
55609;SDS011;41486;52.502;13.486;2022-10-16T00:48:57;1.52;;;1.30;;
55609;SDS011;41486;52.502;13.486;2022-10-16T00:51:30;1.58;;;1.40;;
55609;SDS011;41486;52.502;13.486;2022-10-16T00:54:01;2.75;;;1.48;;
55609;SDS011;41486;52.502;13.486;2022-10-16T00:56:32;4.43;;;1.27;;
55609;SDS011;41486;52.502;13.486;2022-10-16T00:59:02;1.48;;;1.15;;
55609;SDS011;41486;52.502;13.486;2022-10-16T01:01:33;1.67;;;1.20;;
55609;SDS011;41486;52.502;13.486;2022-10-16T01:04:01;1.10;;;1.00;;
55609;SDS011;41486;52.502;13.486;2022-10-16T01:06:31;1.38;;;1.27;;
55609;SDS011;41486;52.502;13.486;2022-10-16T01:09:13;2.28;;;1.30;;
55609;SDS011;41486;52.502;13.486;2022-10-16T01:11:55;1.58;;;1.23;;
55609;SDS011;41486;52.502;13.486;2022-10-16T01:14:31;2.17;;;1.35;;
55609;SDS011;41486;52.502;13.486;2022-10-16T01:17:09;1.70;;;1.08;;
55609;SDS011;41486;52.502;13.486;2022-10-16T01:19:52;1.42;;;1.02;;
55609;SDS011;41486;52.502;13.486;2022-10-16T01:22:33;1.83;;;1.40;;
55609;SDS011;41486;52.502;13.486;2022-10-16T01:25:09;1.42;;;1.23;;
55609;SDS011;41486;52.502;13.486;2022-10-16T01:27:45;1.30;;;1.15;;
55609;SDS011;41486;52.502;13.486;2022-10-16T01:30:16;2.30;;;1.52;;
55609;SDS011;41486;52.502;13.486;2022-10-16T01:32:49;3.08;;;1.15;;
55609;SDS011;41486;52.502;13.486;2022-10-16T01:35:21;1.65;;;1.08;;
55609;SDS011;41486;52.502;13.486;2022-10-16T01:37:52;1.27;;;1.13;;
55609;SDS011;41486;52.502;13.486;2022-10-16T01:40:26;1.40;;;1.00;;
55609;SDS011;41486;52.502;13.486;2022-10-16T01:42:59;1.30;;;1.20;;
55609;SDS011;41486;52.502;13.486;2022-10-16T01:45:30;1.70;;;1.20;;
55609;SDS011;41486;52.502;13.486;2022-10-16T01:48:02;1.65;;;1.35;;
55609;SDS011;41486;52.502;13.486;2022-10-16T01:50:35;2.10;;;1.40;;
55609;SDS011;41486;52.502;13.486;2022-10-16T01:53:06;1.70;;;1.45;;
55609;SDS011;41486;52.502;13.486;2022-10-16T01:55:38;1.20;;;1.10;;
55609;SDS011;41486;52.502;13.486;2022-10-16T01:58:13;1.42;;;1.10;;
55609;SDS011;41486;52.502;13.486;2022-10-16T02:00:42;1.00;;;0.90;;
55609;SDS011;41486;52.502;13.486;2022-10-16T02:03:13;2.17;;;1.65;;
55609;SDS011;41486;52.502;13.486;2022-10-16T02:05:46;1.88;;;1.13;;
55609;SDS011;41486;52.502;13.486;2022-10-16T02:08:17;3.22;;;1.27;;
55609;SDS011;41486;52.502;13.486;2022-10-16T02:10:45;1.38;;;1.27;;
55609;SDS011;41486;52.502;13.486;2022-10-16T02:13:15;6.10;;;1.70;;
55609;SDS011;41486;52.502;13.486;2022-10-16T02:15:47;1.52;;;1.23;;
55609;SDS011;41486;52.502;13.486;2022-10-16T02:18:15;1.23;;;1.13;;
55609;SDS011;41486;52.502;13.486;2022-10-16T02:20:44;1.70;;;1.50;;
55609;SDS011;41486;52.502;13.486;2022-10-16T02:23:19;1.67;;;1.30;;
55609;SDS011;41486;52.502;13.486;2022-10-16T02:25:51;1.50;;;1.23;;
55609;SDS011;41486;52.502;13.486;2022-10-16T02:28:23;3.53;;;1.50;;
55609;SDS011;41486;52.502;13.486;2022-10-16T02:30:57;1.10;;;1.00;;
55609;SDS011;41486;52.502;13.486;2022-10-16T02:33:27;2.30;;;1.20;;
55609;SDS011;41486;52.502;13.486;2022-10-16T02:36:00;1.50;;;1.08;;
55609;SDS011;41486;52.502;13.486;2022-10-16T02:38:28;1.33;;;1.10;;
55609;SDS011;41486;52.502;13.486;2022-10-16T02:40:57;1.55;;;1.10;;
55609;SDS011;41486;52.502;13.486;2022-10-16T02:43:27;1.40;;;1.02;;
55609;SDS011;41486;52.502;13.486;2022-10-16T02:45:54;2.08;;;1.08;;
55609;SDS011;41486;52.502;13.486;2022-10-16T02:48:22;1.80;;;1.20;;
55609;SDS011;41486;52.502;13.486;2022-10-16T02:50:50;4.78;;;1.50;;
55609;SDS011;41486;52.502;13.486;2022-10-16T02:53:21;1.67;;;1.30;;
55609;SDS011;41486;52.502;13.486;2022-10-16T02:55:49;1.33;;;1.20;;
55609;SDS011;41486;52.502;13.486;2022-10-16T02:58:16;1.45;;;1.23;;
55609;SDS011;41486;52.502;13.486;2022-10-16T03:00:46;1.10;;;1.00;;
55609;SDS011;41486;52.502;13.486;2022-10-16T03:03:14;1.20;;;1.10;;
55609;SDS011;41486;52.502;13.486;2022-10-16T03:05:42;1.20;;;1.10;;
55609;SDS011;41486;52.502;13.486;2022-10-16T03:08:12;1.17;;;1.05;;
55609;SDS011;41486;52.502;13.486;2022-10-16T03:10:40;3.10;;;1.20;;
55609;SDS011;41486;52.502;13.486;2022-10-16T03:13:09;1.73;;;1.00;;
55609;SDS011;41486;52.502;13.486;2022-10-16T03:15:36;1.15;;;0.95;;
55609;SDS011;41486;52.502;13.486;2022-10-16T03:18:06;2.03;;;1.20;;
55609;SDS011;41486;52.502;13.486;2022-10-16T03:20:34;1.50;;;1.20;;
55609;SDS011;41486;52.502;13.486;2022-10-16T03:23:01;1.42;;;1.20;;
55609;SDS011;41486;52.502;13.486;2022-10-16T03:25:29;1.40;;;1.17;;
55609;SDS011;41486;52.502;13.486;2022-10-16T03:27:58;1.45;;;1.08;;
55609;SDS011;41486;52.502;13.486;2022-10-16T03:30:25;1.35;;;1.25;;
55609;SDS011;41486;52.502;13.486;2022-10-16T03:32:53;1.35;;;1.02;;
55609;SDS011;41486;52.502;13.486;2022-10-16T03:35:23;1.13;;;0.90;;
55609;SDS011;41486;52.502;13.486;2022-10-16T03:37:51;1.92;;;1.13;;
55609;SDS011;41486;52.502;13.486;2022-10-16T03:40:19;3.03;;;0.98;;
55609;SDS011;41486;52.502;13.486;2022-10-16T03:42:47;1.30;;;1.00;;
55609;SDS011;41486;52.502;13.486;2022-10-16T03:45:15;1.20;;;1.10;;
55609;SDS011;41486;52.502;13.486;2022-10-16T03:47:43;1.50;;;1.40;;
55609;SDS011;41486;52.502;13.486;2022-10-16T03:50:11;1.60;;;1.13;;
55609;SDS011;41486;52.502;13.486;2022-10-16T03:52:40;1.45;;;1.30;;
55609;SDS011;41486;52.502;13.486;2022-10-16T03:55:08;1.58;;;1.20;;
55609;SDS011;41486;52.502;13.486;2022-10-16T03:57:36;1.38;;;1.27;;
55609;SDS011;41486;52.502;13.486;2022-10-16T04:00:04;1.58;;;1.10;;
55609;SDS011;41486;52.502;13.486;2022-10-16T04:02:37;2.87;;;1.30;;
55609;SDS011;41486;52.502;13.486;2022-10-16T04:05:05;1.35;;;1.23;;
55609;SDS011;41486;52.502;13.486;2022-10-16T04:07:33;1.70;;;1.20;;
55609;SDS011;41486;52.502;13.486;2022-10-16T04:10:04;2.20;;;1.40;;
55609;SDS011;41486;52.502;13.486;2022-10-16T04:12:33;2.92;;;1.10;;
55609;SDS011;41486;52.502;13.486;2022-10-16T04:15:01;1.25;;;1.15;;
55609;SDS011;41486;52.502;13.486;2022-10-16T04:17:29;1.58;;;1.20;;
55609;SDS011;41486;52.502;13.486;2022-10-16T04:19:57;1.55;;;1.08;;
55609;SDS011;41486;52.502;13.486;2022-10-16T04:22:25;1.20;;;1.10;;
55609;SDS011;41486;52.502;13.486;2022-10-16T04:24:53;3.22;;;1.40;;
55609;SDS011;41486;52.502;13.486;2022-10-16T04:27:22;1.55;;;1.17;;
55609;SDS011;41486;52.502;13.486;2022-10-16T04:29:50;1.10;;;1.00;;
55609;SDS011;41486;52.502;13.486;2022-10-16T04:32:18;1.33;;;1.20;;
55609;SDS011;41486;52.502;13.486;2022-10-16T04:34:46;2.45;;;1.30;;
55609;SDS011;41486;52.502;13.486;2022-10-16T04:37:14;2.00;;;1.17;;
55609;SDS011;41486;52.502;13.486;2022-10-16T04:39:42;1.85;;;1.15;;
55609;SDS011;41486;52.502;13.486;2022-10-16T04:42:11;2.08;;;1.10;;
55609;SDS011;41486;52.502;13.486;2022-10-16T04:44:40;1.50;;;1.10;;
55609;SDS011;41486;52.502;13.486;2022-10-16T04:47:10;2.47;;;1.95;;
55609;SDS011;41486;52.502;13.486;2022-10-16T04:49:38;1.60;;;1.30;;
55609;SDS011;41486;52.502;13.486;2022-10-16T04:52:06;1.35;;;1.25;;
55609;SDS011;41486;52.502;13.486;2022-10-16T04:54:35;1.45;;;1.20;;
55609;SDS011;41486;52.502;13.486;2022-10-16T04:57:03;2.30;;;1.42;;
55609;SDS011;41486;52.502;13.486;2022-10-16T04:59:31;2.15;;;1.27;;
55609;SDS011;41486;52.502;13.486;2022-10-16T05:02:00;2.75;;;1.40;;
55609;SDS011;41486;52.502;13.486;2022-10-16T05:04:28;2.45;;;1.50;;
55609;SDS011;41486;52.502;13.486;2022-10-16T05:06:56;2.00;;;1.42;;
55609;SDS011;41486;52.502;13.486;2022-10-16T05:09:24;1.70;;;1.58;;
55609;SDS011;41486;52.502;13.486;2022-10-16T05:11:52;3.03;;;1.60;;
55609;SDS011;41486;52.502;13.486;2022-10-16T05:14:19;2.35;;;1.85;;
55609;SDS011;41486;52.502;13.486;2022-10-16T05:16:47;3.58;;;1.73;;
55609;SDS011;41486;52.502;13.486;2022-10-16T05:19:17;2.65;;;1.63;;
55609;SDS011;41486;52.502;13.486;2022-10-16T05:21:54;1.90;;;1.48;;
55609;SDS011;41486;52.502;13.486;2022-10-16T05:24:22;2.42;;;1.70;;
55609;SDS011;41486;52.502;13.486;2022-10-16T05:26:50;1.75;;;1.55;;
55609;SDS011;41486;52.502;13.486;2022-10-16T05:29:18;2.97;;;1.60;;
55609;SDS011;41486;52.502;13.486;2022-10-16T05:31:49;2.00;;;1.65;;
55609;SDS011;41486;52.502;13.486;2022-10-16T05:34:19;1.70;;;1.58;;
55609;SDS011;41486;52.502;13.486;2022-10-16T05:36:48;1.95;;;1.70;;
55609;SDS011;41486;52.502;13.486;2022-10-16T05:39:16;1.77;;;1.50;;
55609;SDS011;41486;52.502;13.486;2022-10-16T05:41:44;5.30;;;2.13;;
55609;SDS011;41486;52.502;13.486;2022-10-16T05:44:12;2.30;;;2.05;;
55609;SDS011;41486;52.502;13.486;2022-10-16T05:46:40;2.88;;;1.85;;
55609;SDS011;41486;52.502;13.486;2022-10-16T05:49:07;2.10;;;1.90;;
55609;SDS011;41486;52.502;13.486;2022-10-16T05:51:38;2.47;;;1.60;;
55609;SDS011;41486;52.502;13.486;2022-10-16T05:54:06;2.28;;;1.85;;
55609;SDS011;41486;52.502;13.486;2022-10-16T05:56:34;2.80;;;2.15;;
55609;SDS011;41486;52.502;13.486;2022-10-16T05:59:02;1.90;;;1.50;;
55609;SDS011;41486;52.502;13.486;2022-10-16T06:01:31;3.30;;;1.95;;
55609;SDS011;41486;52.502;13.486;2022-10-16T06:03:59;2.97;;;1.92;;
55609;SDS011;41486;52.502;13.486;2022-10-16T06:06:27;3.03;;;2.38;;
55609;SDS011;41486;52.502;13.486;2022-10-16T06:08:58;2.10;;;1.88;;
55609;SDS011;41486;52.502;13.486;2022-10-16T06:11:28;2.28;;;1.80;;
55609;SDS011;41486;52.502;13.486;2022-10-16T06:13:58;1.73;;;1.52;;
55609;SDS011;41486;52.502;13.486;2022-10-16T06:16:33;2.63;;;1.83;;
55609;SDS011;41486;52.502;13.486;2022-10-16T06:19:02;2.80;;;2.05;;
55609;SDS011;41486;52.502;13.486;2022-10-16T06:21:32;2.85;;;2.13;;
55609;SDS011;41486;52.502;13.486;2022-10-16T06:24:01;2.67;;;1.90;;
55609;SDS011;41486;52.502;13.486;2022-10-16T06:26:32;3.30;;;2.22;;
55609;SDS011;41486;52.502;13.486;2022-10-16T06:29:00;2.22;;;1.83;;
55609;SDS011;41486;52.502;13.486;2022-10-16T06:31:29;2.38;;;1.88;;
55609;SDS011;41486;52.502;13.486;2022-10-16T06:33:59;2.45;;;1.80;;
55609;SDS011;41486;52.502;13.486;2022-10-16T06:36:28;6.25;;;2.58;;
55609;SDS011;41486;52.502;13.486;2022-10-16T06:38:56;1.60;;;1.50;;
55609;SDS011;41486;52.502;13.486;2022-10-16T06:41:25;3.45;;;2.22;;
55609;SDS011;41486;52.502;13.486;2022-10-16T06:43:56;2.13;;;1.77;;
55609;SDS011;41486;52.502;13.486;2022-10-16T06:46:24;2.22;;;1.65;;
55609;SDS011;41486;52.502;13.486;2022-10-16T06:48:53;2.60;;;1.90;;
55609;SDS011;41486;52.502;13.486;2022-10-16T06:51:21;2.20;;;2.00;;
55609;SDS011;41486;52.502;13.486;2022-10-16T06:53:51;2.10;;;1.75;;
55609;SDS011;41486;52.502;13.486;2022-10-16T06:56:31;1.98;;;1.63;;
55609;SDS011;41486;52.502;13.486;2022-10-16T06:59:00;3.55;;;1.75;;
55609;SDS011;41486;52.502;13.486;2022-10-16T07:01:29;2.28;;;1.73;;
55609;SDS011;41486;52.502;13.486;2022-10-16T07:03:57;1.95;;;1.42;;
55609;SDS011;41486;52.502;13.486;2022-10-16T07:06:25;1.70;;;1.27;;
55609;SDS011;41486;52.502;13.486;2022-10-16T07:08:54;1.80;;;1.38;;
55609;SDS011;41486;52.502;13.486;2022-10-16T07:11:23;3.10;;;1.50;;
55609;SDS011;41486;52.502;13.486;2022-10-16T07:13:54;1.52;;;1.42;;
55609;SDS011;41486;52.502;13.486;2022-10-16T07:16:23;2.42;;;1.50;;
55609;SDS011;41486;52.502;13.486;2022-10-16T07:18:53;2.63;;;1.60;;
55609;SDS011;41486;52.502;13.486;2022-10-16T07:21:25;4.47;;;1.48;;
55609;SDS011;41486;52.502;13.486;2022-10-16T07:23:56;1.40;;;1.30;;
55609;SDS011;41486;52.502;13.486;2022-10-16T07:26:25;2.70;;;1.63;;
55609;SDS011;41486;52.502;13.486;2022-10-16T07:28:58;1.75;;;1.50;;
55609;SDS011;41486;52.502;13.486;2022-10-16T07:31:30;1.75;;;1.40;;
55609;SDS011;41486;52.502;13.486;2022-10-16T07:34:00;3.10;;;1.45;;
55609;SDS011;41486;52.502;13.486;2022-10-16T07:36:28;2.20;;;1.15;;
55609;SDS011;41486;52.502;13.486;2022-10-16T07:38:56;1.52;;;1.20;;
55609;SDS011;41486;52.502;13.486;2022-10-16T07:41:26;1.58;;;1.38;;
55609;SDS011;41486;52.502;13.486;2022-10-16T07:43:54;2.47;;;1.27;;
55609;SDS011;41486;52.502;13.486;2022-10-16T07:46:30;2.25;;;1.15;;
55609;SDS011;41486;52.502;13.486;2022-10-16T07:49:00;2.85;;;1.25;;
55609;SDS011;41486;52.502;13.486;2022-10-16T07:51:27;2.15;;;1.10;;
55609;SDS011;41486;52.502;13.486;2022-10-16T07:53:56;2.28;;;1.23;;
55609;SDS011;41486;52.502;13.486;2022-10-16T07:56:24;1.13;;;0.90;;
55609;SDS011;41486;52.502;13.486;2022-10-16T07:58:52;1.17;;;1.08;;
55609;SDS011;41486;52.502;13.486;2022-10-16T08:01:20;2.08;;;1.20;;
55609;SDS011;41486;52.502;13.486;2022-10-16T08:03:51;0.98;;;0.85;;
55609;SDS011;41486;52.502;13.486;2022-10-16T08:06:20;1.10;;;1.00;;
55609;SDS011;41486;52.502;13.486;2022-10-16T08:08:53;1.10;;;1.03;;
55609;SDS011;41486;52.502;13.486;2022-10-16T08:11:22;1.48;;;1.00;;
55609;SDS011;41486;52.502;13.486;2022-10-16T08:13:50;2.03;;;1.05;;
55609;SDS011;41486;52.502;13.486;2022-10-16T08:16:18;1.10;;;1.00;;
55609;SDS011;41486;52.502;13.486;2022-10-16T08:18:50;4.72;;;3.30;;
55609;SDS011;41486;52.502;13.486;2022-10-16T08:21:19;14.68;;;11.15;;
55609;SDS011;41486;52.502;13.486;2022-10-16T08:23:50;4.13;;;3.72;;
55609;SDS011;41486;52.502;13.486;2022-10-16T08:26:23;2.35;;;1.80;;
55609;SDS011;41486;52.502;13.486;2022-10-16T08:28:53;0.95;;;0.82;;
55609;SDS011;41486;52.502;13.486;2022-10-16T08:31:22;1.05;;;0.88;;
55609;SDS011;41486;52.502;13.486;2022-10-16T08:33:52;0.90;;;0.73;;
55609;SDS011;41486;52.502;13.486;2022-10-16T08:36:20;0.93;;;0.70;;
55609;SDS011;41486;52.502;13.486;2022-10-16T08:38:49;1.02;;;0.73;;
55609;SDS011;41486;52.502;13.486;2022-10-16T08:41:35;1.25;;;1.00;;
55609;SDS011;41486;52.502;13.486;2022-10-16T08:44:30;0.80;;;0.77;;
55609;SDS011;41486;52.502;13.486;2022-10-16T08:47:12;0.73;;;0.63;;
55609;SDS011;41486;52.502;13.486;2022-10-16T08:49:48;1.40;;;0.90;;
55609;SDS011;41486;52.502;13.486;2022-10-16T08:52:25;1.58;;;0.77;;
55609;SDS011;41486;52.502;13.486;2022-10-16T08:54:57;2.47;;;1.33;;
55609;SDS011;41486;52.502;13.486;2022-10-16T08:57:25;0.68;;;0.68;;
55609;SDS011;41486;52.502;13.486;2022-10-16T08:59:54;1.45;;;1.02;;
55609;SDS011;41486;52.502;13.486;2022-10-16T09:02:29;1.10;;;1.00;;
55609;SDS011;41486;52.502;13.486;2022-10-16T09:05:08;0.80;;;0.70;;
55609;SDS011;41486;52.502;13.486;2022-10-16T09:07:51;3.58;;;0.90;;
55609;SDS011;41486;52.502;13.486;2022-10-16T09:10:38;0.90;;;0.77;;
55609;SDS011;41486;52.502;13.486;2022-10-16T09:13:17;1.33;;;0.80;;
55609;SDS011;41486;52.502;13.486;2022-10-16T09:15:53;1.42;;;0.90;;
55609;SDS011;41486;52.502;13.486;2022-10-16T09:18:28;3.97;;;0.98;;
55609;SDS011;41486;52.502;13.486;2022-10-16T09:21:07;1.00;;;0.90;;
55609;SDS011;41486;52.502;13.486;2022-10-16T09:23:41;1.42;;;0.70;;
55609;SDS011;41486;52.502;13.486;2022-10-16T09:26:10;1.58;;;0.88;;
55609;SDS011;41486;52.502;13.486;2022-10-16T09:28:40;0.80;;;0.75;;
55609;SDS011;41486;52.502;13.486;2022-10-16T09:31:13;0.88;;;0.77;;
55609;SDS011;41486;52.502;13.486;2022-10-16T09:33:48;1.38;;;1.00;;
55609;SDS011;41486;52.502;13.486;2022-10-16T09:36:21;2.58;;;0.90;;
55609;SDS011;41486;52.502;13.486;2022-10-16T09:39:01;0.70;;;0.70;;
55609;SDS011;41486;52.502;13.486;2022-10-16T09:41:30;1.55;;;0.70;;
55609;SDS011;41486;52.502;13.486;2022-10-16T09:44:01;1.02;;;0.80;;
55609;SDS011;41486;52.502;13.486;2022-10-16T09:46:31;0.80;;;0.80;;
55609;SDS011;41486;52.502;13.486;2022-10-16T09:49:02;0.90;;;0.90;;
55609;SDS011;41486;52.502;13.486;2022-10-16T09:51:34;1.00;;;0.88;;
55609;SDS011;41486;52.502;13.486;2022-10-16T09:54:12;0.70;;;0.70;;
55609;SDS011;41486;52.502;13.486;2022-10-16T09:56:41;1.90;;;0.82;;
55609;SDS011;41486;52.502;13.486;2022-10-16T09:59:12;1.33;;;0.98;;
55609;SDS011;41486;52.502;13.486;2022-10-16T10:01:42;0.75;;;0.70;;
55609;SDS011;41486;52.502;13.486;2022-10-16T10:04:13;1.25;;;0.90;;
55609;SDS011;41486;52.502;13.486;2022-10-16T10:06:43;1.85;;;0.90;;
55609;SDS011;41486;52.502;13.486;2022-10-16T10:09:17;0.73;;;0.70;;
55609;SDS011;41486;52.502;13.486;2022-10-16T10:11:48;1.30;;;0.80;;
55609;SDS011;41486;52.502;13.486;2022-10-16T10:17:11;0.70;;;0.70;;
55609;SDS011;41486;52.502;13.486;2022-10-16T10:19:42;0.80;;;0.80;;
55609;SDS011;41486;52.502;13.486;2022-10-16T10:22:19;0.70;;;0.70;;
55609;SDS011;41486;52.502;13.486;2022-10-16T10:27:48;1.30;;;0.73;;
55609;SDS011;41486;52.502;13.486;2022-10-16T10:30:27;1.55;;;0.85;;
55609;SDS011;41486;52.502;13.486;2022-10-16T10:33:05;1.85;;;0.55;;
55609;SDS011;41486;52.502;13.486;2022-10-16T10:35:44;0.70;;;0.70;;
55609;SDS011;41486;52.502;13.486;2022-10-16T10:38:23;2.53;;;0.80;;
55609;SDS011;41486;52.502;13.486;2022-10-16T10:41:01;1.48;;;0.90;;
55609;SDS011;41486;52.502;13.486;2022-10-16T10:43:43;1.17;;;0.85;;
55609;SDS011;41486;52.502;13.486;2022-10-16T10:46:20;0.70;;;0.70;;
55609;SDS011;41486;52.502;13.486;2022-10-16T10:49:01;0.95;;;0.70;;
55609;SDS011;41486;52.502;13.486;2022-10-16T10:51:39;1.25;;;0.75;;
55609;SDS011;41486;52.502;13.486;2022-10-16T10:54:17;1.63;;;1.02;;
55609;SDS011;41486;52.502;13.486;2022-10-16T10:56:56;2.35;;;1.00;;
55609;SDS011;41486;52.502;13.486;2022-10-16T10:59:30;2.42;;;1.00;;
55609;SDS011;41486;52.502;13.486;2022-10-16T11:02:04;0.88;;;0.77;;
55609;SDS011;41486;52.502;13.486;2022-10-16T11:04:49;0.65;;;0.60;;
55609;SDS011;41486;52.502;13.486;2022-10-16T11:07:39;0.95;;;0.80;;
55609;SDS011;41486;52.502;13.486;2022-10-16T11:10:21;1.00;;;0.70;;
55609;SDS011;41486;52.502;13.486;2022-10-16T11:12:55;1.13;;;0.75;;
55609;SDS011;41486;52.502;13.486;2022-10-16T11:15:27;1.30;;;0.60;;
55609;SDS011;41486;52.502;13.486;2022-10-16T11:17:59;0.77;;;0.75;;
55609;SDS011;41486;52.502;13.486;2022-10-16T11:20:34;0.70;;;0.70;;
55609;SDS011;41486;52.502;13.486;2022-10-16T11:23:05;2.58;;;0.73;;
55609;SDS011;41486;52.502;13.486;2022-10-16T11:25:39;0.70;;;0.68;;
55609;SDS011;41486;52.502;13.486;2022-10-16T11:28:09;1.90;;;0.60;;
55609;SDS011;41486;52.502;13.486;2022-10-16T11:30:43;1.08;;;0.60;;
55609;SDS011;41486;52.502;13.486;2022-10-16T11:33:20;1.00;;;1.00;;
55609;SDS011;41486;52.502;13.486;2022-10-16T11:35:57;0.68;;;0.60;;
55609;SDS011;41486;52.502;13.486;2022-10-16T11:38:32;1.05;;;0.68;;
55609;SDS011;41486;52.502;13.486;2022-10-16T11:41:10;1.15;;;0.95;;
55609;SDS011;41486;52.502;13.486;2022-10-16T11:43:48;6.53;;;0.88;;
55609;SDS011;41486;52.502;13.486;2022-10-16T11:46:20;0.95;;;0.57;;
55609;SDS011;41486;52.502;13.486;2022-10-16T11:48:52;1.25;;;0.60;;
55609;SDS011;41486;52.502;13.486;2022-10-16T11:51:29;1.52;;;0.60;;
55609;SDS011;41486;52.502;13.486;2022-10-16T11:54:02;0.90;;;0.65;;
55609;SDS011;41486;52.502;13.486;2022-10-16T11:56:38;0.60;;;0.55;;
55609;SDS011;41486;52.502;13.486;2022-10-16T11:59:10;0.50;;;0.47;;
55609;SDS011;41486;52.502;13.486;2022-10-16T12:01:47;1.17;;;0.90;;
55609;SDS011;41486;52.502;13.486;2022-10-16T12:04:21;1.65;;;0.63;;
55609;SDS011;41486;52.502;13.486;2022-10-16T12:06:55;1.15;;;0.70;;
55609;SDS011;41486;52.502;13.486;2022-10-16T12:09:28;0.60;;;0.60;;
55609;SDS011;41486;52.502;13.486;2022-10-16T12:11:59;2.47;;;1.30;;
55609;SDS011;41486;52.502;13.486;2022-10-16T12:14:35;1.15;;;0.70;;
55609;SDS011;41486;52.502;13.486;2022-10-16T12:17:26;1.45;;;0.45;;
55609;SDS011;41486;52.502;13.486;2022-10-16T12:20:12;2.50;;;0.75;;
55609;SDS011;41486;52.502;13.486;2022-10-16T12:22:50;0.73;;;0.60;;
55609;SDS011;41486;52.502;13.486;2022-10-16T12:25:21;0.65;;;0.45;;
55609;SDS011;41486;52.502;13.486;2022-10-16T12:27:56;0.70;;;0.68;;
55609;SDS011;41486;52.502;13.486;2022-10-16T12:30:26;0.45;;;0.45;;
55609;SDS011;41486;52.502;13.486;2022-10-16T12:33:01;0.47;;;0.40;;
55609;SDS011;41486;52.502;13.486;2022-10-16T12:35:31;0.47;;;0.47;;
55609;SDS011;41486;52.502;13.486;2022-10-16T12:38:05;1.50;;;0.70;;
55609;SDS011;41486;52.502;13.486;2022-10-16T12:40:35;2.25;;;0.63;;
55609;SDS011;41486;52.502;13.486;2022-10-16T12:43:22;0.60;;;0.60;;
55609;SDS011;41486;52.502;13.486;2022-10-16T12:45:59;0.60;;;0.60;;
55609;SDS011;41486;52.502;13.486;2022-10-16T12:48:29;0.47;;;0.47;;
55609;SDS011;41486;52.502;13.486;2022-10-16T12:51:22;2.22;;;0.40;;
55609;SDS011;41486;52.502;13.486;2022-10-16T12:53:59;2.10;;;0.60;;
55609;SDS011;41486;52.502;13.486;2022-10-16T12:56:29;0.63;;;0.57;;
55609;SDS011;41486;52.502;13.486;2022-10-16T12:59:12;0.90;;;0.65;;
55609;SDS011;41486;52.502;13.486;2022-10-16T13:01:54;0.43;;;0.40;;
55609;SDS011;41486;52.502;13.486;2022-10-16T13:04:38;2.88;;;0.50;;
55609;SDS011;41486;52.502;13.486;2022-10-16T13:10:13;0.55;;;0.52;;
55609;SDS011;41486;52.502;13.486;2022-10-16T13:12:53;0.40;;;0.40;;
55609;SDS011;41486;52.502;13.486;2022-10-16T13:15:44;0.85;;;0.55;;
55609;SDS011;41486;52.502;13.486;2022-10-16T13:18:25;0.68;;;0.57;;
55609;SDS011;41486;52.502;13.486;2022-10-16T13:21:07;0.65;;;0.45;;
55609;SDS011;41486;52.502;13.486;2022-10-16T13:23:48;0.40;;;0.40;;
55609;SDS011;41486;52.502;13.486;2022-10-16T13:26:26;0.77;;;0.50;;
55609;SDS011;41486;52.502;13.486;2022-10-16T13:29:03;0.28;;;0.28;;
55609;SDS011;41486;52.502;13.486;2022-10-16T13:31:33;0.50;;;0.40;;
55609;SDS011;41486;52.502;13.486;2022-10-16T13:34:01;0.32;;;0.32;;
55609;SDS011;41486;52.502;13.486;2022-10-16T13:36:34;2.47;;;1.20;;
55609;SDS011;41486;52.502;13.486;2022-10-16T13:39:10;3.72;;;2.90;;
55609;SDS011;41486;52.502;13.486;2022-10-16T13:41:40;2.03;;;0.60;;
55609;SDS011;41486;52.502;13.486;2022-10-16T13:44:12;1.02;;;0.70;;
55609;SDS011;41486;52.502;13.486;2022-10-16T13:46:44;1.92;;;0.52;;
55609;SDS011;41486;52.502;13.486;2022-10-16T13:49:13;0.50;;;0.50;;
55609;SDS011;41486;52.502;13.486;2022-10-16T13:51:53;0.63;;;0.43;;
55609;SDS011;41486;52.502;13.486;2022-10-16T13:54:22;1.00;;;0.38;;
55609;SDS011;41486;52.502;13.486;2022-10-16T13:56:51;0.40;;;0.40;;
55609;SDS011;41486;52.502;13.486;2022-10-16T13:59:35;0.40;;;0.40;;
55609;SDS011;41486;52.502;13.486;2022-10-16T14:02:14;1.52;;;0.60;;
55609;SDS011;41486;52.502;13.486;2022-10-16T14:04:47;0.60;;;0.52;;
55609;SDS011;41486;52.502;13.486;2022-10-16T14:07:18;1.38;;;0.60;;
55609;SDS011;41486;52.502;13.486;2022-10-16T14:09:50;2.60;;;0.70;;
55609;SDS011;41486;52.502;13.486;2022-10-16T14:12:21;0.98;;;0.55;;
55609;SDS011;41486;52.502;13.486;2022-10-16T14:14:54;0.55;;;0.52;;
55609;SDS011;41486;52.502;13.486;2022-10-16T14:17:25;0.75;;;0.40;;
55609;SDS011;41486;52.502;13.486;2022-10-16T14:19:55;0.70;;;0.40;;
55609;SDS011;41486;52.502;13.486;2022-10-16T14:22:30;0.60;;;0.50;;
55609;SDS011;41486;52.502;13.486;2022-10-16T14:25:00;0.40;;;0.40;;
55609;SDS011;41486;52.502;13.486;2022-10-16T14:27:31;0.80;;;0.57;;
55609;SDS011;41486;52.502;13.486;2022-10-16T14:30:13;0.50;;;0.47;;
55609;SDS011;41486;52.502;13.486;2022-10-16T14:32:54;0.85;;;0.60;;
55609;SDS011;41486;52.502;13.486;2022-10-16T14:35:24;1.05;;;0.50;;
55609;SDS011;41486;52.502;13.486;2022-10-16T14:37:54;2.55;;;0.68;;
55609;SDS011;41486;52.502;13.486;2022-10-16T14:40:23;4.80;;;0.65;;
55609;SDS011;41486;52.502;13.486;2022-10-16T14:42:53;0.60;;;0.60;;
55609;SDS011;41486;52.502;13.486;2022-10-16T14:45:22;1.55;;;0.50;;
55609;SDS011;41486;52.502;13.486;2022-10-16T14:47:55;0.55;;;0.52;;
55609;SDS011;41486;52.502;13.486;2022-10-16T14:50:25;0.73;;;0.50;;
55609;SDS011;41486;52.502;13.486;2022-10-16T14:52:53;0.77;;;0.60;;
55609;SDS011;41486;52.502;13.486;2022-10-16T14:55:21;2.47;;;0.70;;
55609;SDS011;41486;52.502;13.486;2022-10-16T14:57:50;0.38;;;0.38;;
55609;SDS011;41486;52.502;13.486;2022-10-16T15:00:23;0.50;;;0.50;;
55609;SDS011;41486;52.502;13.486;2022-10-16T15:02:51;0.70;;;0.47;;
55609;SDS011;41486;52.502;13.486;2022-10-16T15:05:21;2.10;;;0.63;;
55609;SDS011;41486;52.502;13.486;2022-10-16T15:07:51;3.38;;;0.70;;
55609;SDS011;41486;52.502;13.486;2022-10-16T15:10:21;0.98;;;0.60;;